Time;durP1;ratioP1;P1;durP2;ratioP2;P2;SDS_P1;SDS_P2;PMS_P1;PMS_P2;Temp;Humidity;BMP_temperature;BMP_pressure;BME280_temperature;BME280_humidity;BME280_pressure;Samples;Min_cycle;Max_cycle;Signal;HPM_P1;HPM_P2
2021/10/02 00:31:45;;;;;;;12.63;1.88;;;8.00;99.90;;;;;;4957248;29;20078;-90
2021/10/02 00:37:23;;;;;;;9.13;1.55;;;8.10;99.90;;;;;;4957214;29;20046;-91
2021/10/02 00:45:04;;;;;;;12.25;1.67;;;8.00;99.90;;;;;;4956815;29;20031;-90
2021/10/02 00:47:33;;;;;;;11.07;1.65;;;8.00;99.90;;;;;;4939628;29;20027;-90
2021/10/02 00:49:59;;;;;;;7.53;1.17;;;8.00;99.90;;;;;;4939730;29;20046;-89
2021/10/02 00:52:25;;;;;;;10.70;1.52;;;8.00;99.90;;;;;;4939139;29;20500;-90
2021/10/02 00:54:51;;;;;;;8.40;2.05;;;7.90;99.90;;;;;;4939726;29;20066;-90
2021/10/02 00:57:17;;;;;;;6.80;2.47;;;7.90;99.90;;;;;;4939478;29;20027;-90
2021/10/02 00:59:48;;;;;;;9.32;1.77;;;7.90;99.90;;;;;;4939442;29;20035;-90
2021/10/02 01:02:22;;;;;;;10.38;1.60;;;7.90;99.90;;;;;;4939327;29;20028;-91
2021/10/02 01:04:56;;;;;;;12.30;1.70;;;7.80;99.90;;;;;;4939753;29;20032;-90
2021/10/02 01:07:31;;;;;;;9.82;1.75;;;7.80;99.90;;;;;;4939369;29;20118;-91
2021/10/02 01:10:21;;;;;;;14.88;2.55;;;7.80;99.90;;;;;;4942684;29;20062;-90
2021/10/02 01:12:56;;;;;;;16.58;1.85;;;7.80;99.90;;;;;;4950521;29;20031;-91
2021/10/02 01:15:38;;;;;;;15.27;2.35;;;7.80;99.90;;;;;;4947010;29;20058;-90
2021/10/02 01:18:15;;;;;;;19.02;1.55;;;7.80;99.90;;;;;;4945324;29;20027;-90
2021/10/02 01:20:52;;;;;;;12.45;1.73;;;7.80;99.90;;;;;;4945551;28;20118;-90
2021/10/02 01:23:37;;;;;;;12.93;1.73;;;7.80;99.90;;;;;;4945539;29;20102;-90
2021/10/02 01:26:16;;;;;;;11.63;2.63;;;7.80;99.90;;;;;;4945501;29;20380;-90
2021/10/02 01:28:44;;;;;;;12.77;2.25;;;7.80;99.90;;;;;;4945932;29;20089;-90
2021/10/02 01:31:34;;;;;;;13.20;1.60;;;7.80;99.90;;;;;;4945890;29;20465;-89
2021/10/02 01:34:14;;;;;;;11.90;1.90;;;7.90;99.90;;;;;;4945419;29;20031;-90
2021/10/02 01:47:49;;;;;;;13.88;1.90;;;7.80;99.90;;;;;;4962660;29;20067;-90
2021/10/02 01:50:18;;;;;;;9.45;2.72;;;7.80;99.90;;;;;;4945676;29;20035;-90
2021/10/02 01:52:45;;;;;;;16.90;1.63;;;7.80;99.90;;;;;;4945498;29;20074;-90
2021/10/02 01:55:12;;;;;;;11.02;1.30;;;7.70;99.90;;;;;;4945647;29;20090;-90
2021/10/02 01:57:47;;;;;;;12.02;1.77;;;7.70;99.90;;;;;;4944851;29;20239;-90
2021/10/02 02:00:15;;;;;;;5.82;1.33;;;7.70;99.90;;;;;;4945395;29;20054;-90
2021/10/02 02:02:48;;;;;;;12.45;1.92;;;7.60;99.90;;;;;;4944959;29;20031;-90
2021/10/02 02:05:17;;;;;;;15.32;2.63;;;7.60;99.90;;;;;;4945542;29;20142;-90
2021/10/02 02:07:48;;;;;;;15.35;1.40;;;7.60;99.90;;;;;;4945152;29;20114;-91
2021/10/02 02:10:15;;;;;;;17.15;2.38;;;7.50;99.90;;;;;;4945255;29;20050;-89
2021/10/02 02:12:42;;;;;;;8.70;1.50;;;7.50;99.90;;;;;;4945220;29;20023;-90
2021/10/02 02:15:10;;;;;;;10.68;1.75;;;7.40;99.90;;;;;;4944990;29;20027;-90
2021/10/02 02:17:42;;;;;;;16.45;2.40;;;7.40;99.90;;;;;;4944804;29;20030;-90
2021/10/02 02:20:10;;;;;;;10.48;1.75;;;7.40;99.90;;;;;;4944559;29;20492;-90
2021/10/02 02:22:36;;;;;;;15.20;1.88;;;7.40;99.90;;;;;;4946021;29;20027;-89
2021/10/02 02:25:04;;;;;;;17.85;2.40;;;7.40;99.90;;;;;;4942080;29;20023;-90
2021/10/02 02:27:30;;;;;;;10.23;1.77;;;7.40;99.90;;;;;;4941938;29;20102;-90
2021/10/02 02:29:56;;;;;;;12.07;1.92;;;7.40;99.90;;;;;;4941857;29;20126;-90
2021/10/02 02:32:23;;;;;;;15.10;1.70;;;7.40;99.90;;;;;;4958800;29;20024;-90
2021/10/02 02:34:50;;;;;;;15.77;1.90;;;7.40;99.90;;;;;;4958758;29;20035;-89
2021/10/02 02:37:16;;;;;;;13.10;1.83;;;7.40;99.90;;;;;;4941786;29;20059;-90
2021/10/02 02:39:42;;;;;;;14.90;2.22;;;7.30;99.90;;;;;;4941500;29;20043;-89
2021/10/02 02:42:08;;;;;;;8.85;1.30;;;7.30;99.90;;;;;;4941114;29;20098;-90
2021/10/02 02:44:34;;;;;;;10.90;2.83;;;7.30;99.90;;;;;;4958076;29;20027;-90
2021/10/02 02:47:09;;;;;;;7.45;1.40;;;7.20;99.90;;;;;;4941644;29;20047;-90
2021/10/02 02:49:46;;;;;;;13.80;1.40;;;7.20;99.90;;;;;;4958461;29;20039;-90
2021/10/02 02:52:18;;;;;;;11.70;1.65;;;7.30;99.90;;;;;;4943939;29;20043;-90
2021/10/02 02:55:03;;;;;;;13.90;1.63;;;7.30;99.90;;;;;;4947788;29;20035;-90
2021/10/02 02:57:34;;;;;;;9.25;1.80;;;7.30;99.90;;;;;;4975236;28;20031;-90
2021/10/02 03:00:04;;;;;;;10.18;2.28;;;7.30;99.90;;;;;;4980517;28;20030;-91
2021/10/02 03:02:34;;;;;;;9.00;1.70;;;7.30;99.90;;;;;;4996316;28;20027;-90
2021/10/02 03:05:02;;;;;;;10.98;2.15;;;7.30;99.90;;;;;;4996277;28;20058;-89
2021/10/02 03:07:30;;;;;;;12.30;2.22;;;7.30;99.90;;;;;;4993331;28;20479;-90
2021/10/02 03:09:57;;;;;;;10.65;1.42;;;7.30;99.90;;;;;;4977711;28;20042;-89
2021/10/02 03:12:31;;;;;;;12.27;2.05;;;7.30;99.90;;;;;;4960507;28;20114;-90
2021/10/02 03:15:00;;;;;;;11.95;2.40;;;7.30;99.90;;;;;;4960300;28;20038;-90
2021/10/02 03:17:28;;;;;;;11.10;2.15;;;7.30;99.90;;;;;;4960288;28;20062;-90
2021/10/02 03:19:55;;;;;;;9.65;2.00;;;7.30;99.90;;;;;;4960196;28;20027;-89
2021/10/02 03:22:21;;;;;;;5.35;1.77;;;7.40;99.90;;;;;;4960984;28;20508;-89
2021/10/02 03:24:49;;;;;;;12.02;1.75;;;7.30;99.90;;;;;;4977706;28;20026;-89
2021/10/02 03:27:15;;;;;;;7.65;1.45;;;7.30;99.90;;;;;;4960172;28;20023;-89
2021/10/02 03:29:41;;;;;;;19.00;3.25;;;7.30;99.90;;;;;;4962633;28;20038;-89
2021/10/02 03:32:08;;;;;;;14.70;1.73;;;7.30;99.90;;;;;;4960355;28;20023;-89
2021/10/02 03:34:35;;;;;;;14.13;2.10;;;7.30;99.90;;;;;;4961166;28;20039;-89
2021/10/02 03:37:01;;;;;;;11.40;2.40;;;7.30;99.90;;;;;;4981888;28;20019;-89
2021/10/02 03:39:27;;;;;;;9.27;1.88;;;7.30;99.90;;;;;;4980258;28;20049;-90
2021/10/02 03:42:12;;;;;;;15.50;1.85;;;7.20;99.90;;;;;;4977433;28;20050;-91
2021/10/02 03:44:43;;;;;;;13.15;2.55;;;7.20;99.90;;;;;;4959927;28;20058;-89
2021/10/02 03:47:11;;;;;;;14.80;2.25;;;7.20;99.90;;;;;;4959551;28;20026;-89
2021/10/02 03:49:37;;;;;;;17.75;2.08;;;7.20;99.90;;;;;;4959868;28;20068;-89
2021/10/02 03:52:03;;;;;;;22.42;2.70;;;7.20;99.90;;;;;;4985302;28;20177;-90
2021/10/02 03:54:29;;;;;;;9.18;1.88;;;7.20;99.90;;;;;;4967111;28;20094;-90
2021/10/02 03:56:55;;;;;;;18.13;3.75;;;7.20;99.90;;;;;;4966588;28;20058;-90
2021/10/02 03:59:21;;;;;;;5.72;1.55;;;7.30;99.90;;;;;;4964072;28;20387;-90
2021/10/02 04:01:46;;;;;;;7.47;1.60;;;7.20;99.90;;;;;;4964079;28;20074;-90
2021/10/02 04:04:12;;;;;;;11.65;2.45;;;7.20;99.90;;;;;;4959700;28;20027;-90
2021/10/02 04:06:38;;;;;;;14.38;1.95;;;7.20;99.90;;;;;;4959205;28;20473;-90
2021/10/02 04:09:04;;;;;;;15.63;2.38;;;7.20;99.90;;;;;;4959070;28;20062;-91
2021/10/02 04:11:30;;;;;;;6.85;1.80;;;7.30;99.90;;;;;;4958995;28;20073;-90
2021/10/02 04:13:56;;;;;;;11.68;2.10;;;7.20;99.90;;;;;;4959198;28;20066;-90
2021/10/02 04:16:22;;;;;;;10.25;1.85;;;7.20;99.90;;;;;;4959288;28;20027;-89
2021/10/02 04:18:48;;;;;;;12.00;2.15;;;7.20;99.90;;;;;;4959397;28;20034;-90
2021/10/02 04:21:14;;;;;;;20.92;2.35;;;7.20;99.90;;;;;;4958961;28;20354;-90
2021/10/02 04:23:39;;;;;;;10.02;1.88;;;7.20;99.90;;;;;;4959443;28;20396;-89
2021/10/02 04:26:05;;;;;;;16.20;2.35;;;7.30;99.90;;;;;;4958936;28;20022;-90
2021/10/02 04:28:31;;;;;;;10.30;2.00;;;7.20;99.90;;;;;;4975932;28;20030;-90
2021/10/02 04:30:56;;;;;;;11.07;2.35;;;7.30;99.90;;;;;;4958903;28;20189;-90
2021/10/02 04:33:23;;;;;;;16.17;2.70;;;7.20;99.90;;;;;;4964322;28;20023;-90
2021/10/02 04:35:49;;;;;;;14.35;2.05;;;7.20;99.90;;;;;;4959229;28;20038;-90
2021/10/02 04:38:15;;;;;;;14.57;2.40;;;7.20;99.90;;;;;;4959317;28;20023;-89
2021/10/02 04:40:40;;;;;;;17.48;2.42;;;7.20;99.90;;;;;;4959113;28;20026;-90
2021/10/02 04:43:06;;;;;;;11.10;2.47;;;7.20;99.90;;;;;;4958868;28;20520;-91
2021/10/02 04:45:31;;;;;;;10.10;2.28;;;7.20;99.90;;;;;;4958379;28;20085;-90
2021/10/02 04:47:57;;;;;;;10.32;2.10;;;7.20;99.90;;;;;;4958537;28;20035;-89
2021/10/02 04:50:23;;;;;;;16.58;2.03;;;7.30;99.90;;;;;;4958145;28;20134;-89
2021/10/02 04:52:52;;;;;;;13.13;2.63;;;7.30;99.90;;;;;;4958238;28;20034;-90
2021/10/02 04:55:17;;;;;;;12.40;2.33;;;7.30;99.90;;;;;;4958151;28;20027;-88
2021/10/02 04:57:43;;;;;;;11.48;2.55;;;7.40;99.90;;;;;;4958335;28;20118;-90
2021/10/02 05:00:09;;;;;;;14.00;2.13;;;7.40;99.90;;;;;;4958571;28;20453;-89
2021/10/02 05:02:35;;;;;;;9.60;2.20;;;7.40;99.90;;;;;;4959066;28;20033;-90
2021/10/02 05:05:00;;;;;;;15.75;2.30;;;7.40;99.90;;;;;;4958375;28;20462;-89
2021/10/02 05:07:26;;;;;;;16.00;2.50;;;7.40;99.90;;;;;;4958204;28;20526;-90
2021/10/02 05:09:52;;;;;;;12.88;2.83;;;7.40;99.90;;;;;;4957578;28;20035;-90
2021/10/02 05:12:17;;;;;;;10.90;2.47;;;7.40;99.90;;;;;;4958371;28;20432;-90
2021/10/02 05:14:43;;;;;;;11.02;2.50;;;7.40;99.90;;;;;;4975094;28;20030;-90
2021/10/02 05:17:11;;;;;;;21.00;2.85;;;7.50;99.90;;;;;;4957929;28;20082;-90
2021/10/02 05:19:38;;;;;;;14.98;2.28;;;7.50;99.90;;;;;;4957644;28;20038;-90
2021/10/02 05:22:04;;;;;;;12.10;2.40;;;7.50;99.90;;;;;;4957891;28;20019;-89
2021/10/02 05:24:30;;;;;;;16.75;2.72;;;7.50;99.90;;;;;;4957597;28;20505;-90
2021/10/02 05:26:56;;;;;;;11.48;2.70;;;7.50;99.90;;;;;;4957631;28;20023;-90
2021/10/02 05:29:22;;;;;;;14.18;2.58;;;7.50;99.90;;;;;;4957118;28;20499;-91
2021/10/02 05:31:48;;;;;;;10.95;2.20;;;7.50;99.90;;;;;;4957657;28;20037;-91
2021/10/02 05:34:14;;;;;;;19.20;2.83;;;7.50;99.90;;;;;;4958411;28;20034;-90
2021/10/02 05:36:40;;;;;;;19.33;2.90;;;7.50;99.90;;;;;;4959440;28;20027;-90
2021/10/02 05:39:06;;;;;;;18.45;3.05;;;7.50;99.90;;;;;;4958913;28;20049;-90
2021/10/02 05:41:32;;;;;;;11.18;2.92;;;7.50;99.90;;;;;;4958646;28;20090;-90
2021/10/02 05:43:58;;;;;;;10.23;3.33;;;7.50;99.90;;;;;;4958542;28;20051;-90
2021/10/02 05:46:24;;;;;;;20.35;4.18;;;7.60;99.90;;;;;;4957894;28;20082;-89
2021/10/02 05:48:49;;;;;;;8.90;2.63;;;7.60;99.90;;;;;;4957216;28;20039;-89
2021/10/02 05:51:15;;;;;;;15.90;3.10;;;7.60;99.90;;;;;;4957221;28;20042;-88
2021/10/02 05:53:40;;;;;;;19.00;3.90;;;7.70;99.90;;;;;;4956911;28;20026;-89
2021/10/02 05:56:06;;;;;;;13.38;3.55;;;7.70;99.90;;;;;;4957138;28;20023;-89
2021/10/02 05:58:32;;;;;;;14.02;3.50;;;7.70;99.90;;;;;;4949986;28;20027;-89
2021/10/02 06:00:57;;;;;;;17.40;4.25;;;7.70;99.90;;;;;;4922727;29;20028;-89
2021/10/02 06:03:23;;;;;;;12.68;3.50;;;7.80;99.90;;;;;;4922585;29;20167;-89
2021/10/02 06:05:49;;;;;;;10.85;3.28;;;7.80;99.90;;;;;;4922619;29;20040;-89
2021/10/02 06:08:14;;;;;;;16.95;3.20;;;7.80;99.90;;;;;;4922668;29;20032;-89
2021/10/02 06:10:40;;;;;;;13.13;3.33;;;7.90;99.90;;;;;;4923220;29;20036;-88
2021/10/02 06:13:06;;;;;;;11.13;3.00;;;7.90;99.90;;;;;;4922462;29;20024;-87
2021/10/02 06:15:31;;;;;;;20.73;3.72;;;7.90;99.90;;;;;;4922322;29;20035;-87
2021/10/02 06:17:57;;;;;;;14.13;2.97;;;7.90;99.90;;;;;;4921623;29;20032;-86
2021/10/02 06:20:24;;;;;;;12.45;2.95;;;8.00;99.90;;;;;;4938721;29;20401;-87
2021/10/02 06:22:50;;;;;;;17.17;3.55;;;7.90;99.90;;;;;;4921075;29;20438;-87
2021/10/02 06:25:16;;;;;;;9.73;2.75;;;8.00;99.90;;;;;;4921603;29;20082;-87
2021/10/02 06:27:42;;;;;;;13.57;3.03;;;8.00;99.90;;;;;;4921705;29;20032;-87
2021/10/02 06:30:09;;;;;;;12.00;2.65;;;8.00;99.90;;;;;;4921543;29;20285;-87
2021/10/02 06:32:34;;;;;;;14.40;2.50;;;8.00;99.90;;;;;;4938917;29;20110;-87
2021/10/02 06:35:00;;;;;;;11.57;2.50;;;8.00;99.90;;;;;;4922113;29;20095;-88
2021/10/02 06:37:26;;;;;;;15.95;3.58;;;8.00;99.90;;;;;;4921206;29;20030;-86
2021/10/02 06:39:52;;;;;;;16.70;2.40;;;8.10;99.90;;;;;;4921345;29;20027;-86
2021/10/02 06:42:17;;;;;;;9.80;3.00;;;8.10;99.90;;;;;;4920942;29;20050;-85
2021/10/02 06:44:43;;;;;;;12.23;2.15;;;8.10;99.90;;;;;;4921217;29;20067;-85
2021/10/02 06:47:08;;;;;;;15.13;2.28;;;8.10;99.90;;;;;;4937430;29;20118;-87
2021/10/02 06:49:34;;;;;;;16.38;2.03;;;8.10;99.90;;;;;;4940129;29;20043;-86
2021/10/02 06:52:00;;;;;;;10.77;1.80;;;8.20;99.90;;;;;;4939981;29;20482;-86
2021/10/02 06:54:25;;;;;;;9.88;2.05;;;8.20;99.90;;;;;;4957267;29;20027;-86
2021/10/02 06:56:51;;;;;;;13.35;2.00;;;8.20;99.90;;;;;;4956173;29;20388;-85
2021/10/02 06:59:17;;;;;;;16.38;1.75;;;8.20;99.90;;;;;;4939232;29;20568;-87
2021/10/02 07:01:42;;;;;;;10.23;1.42;;;8.20;99.90;;;;;;4939857;29;20031;-87
2021/10/02 07:04:09;;;;;;;11.77;2.10;;;8.30;99.90;;;;;;4939773;29;20027;-87
2021/10/02 07:06:35;;;;;;;11.73;1.80;;;8.20;99.90;;;;;;4936963;29;20493;-86
2021/10/02 07:09:00;;;;;;;9.75;1.35;;;8.30;99.90;;;;;;4936273;29;20036;-86
2021/10/02 07:11:26;;;;;;;14.70;1.95;;;8.20;99.90;;;;;;4941017;29;20115;-89
2021/10/02 07:13:51;;;;;;;9.80;1.77;;;8.30;99.90;;;;;;4940210;29;20035;-87
2021/10/02 07:16:17;;;;;;;14.15;1.75;;;8.30;99.90;;;;;;4940613;29;20038;-87
2021/10/02 07:21:08;;;;;;;11.10;1.55;;;8.30;99.90;;;;;;4892277;29;20061;-93
2021/10/02 07:23:35;;;;;;;9.88;1.70;;;8.30;99.90;;;;;;4930368;23;20122;-86
2021/10/02 07:26:01;;;;;;;10.15;1.83;;;8.40;99.90;;;;;;4919915;29;20060;-84
2021/10/02 07:28:27;;;;;;;14.20;1.70;;;8.40;99.90;;;;;;4919362;29;20069;-86
2021/10/02 07:30:52;;;;;;;12.65;2.13;;;8.50;99.90;;;;;;4919332;29;20316;-86
2021/10/02 07:33:18;;;;;;;12.02;1.92;;;8.50;99.90;;;;;;4919491;29;20031;-86
2021/10/02 07:35:44;;;;;;;15.15;2.63;;;8.50;99.90;;;;;;4919509;29;20044;-86
2021/10/02 07:38:10;;;;;;;13.65;1.50;;;8.60;99.90;;;;;;4919660;29;20030;-85
2021/10/02 07:40:38;;;;;;;12.35;1.80;;;8.60;99.90;;;;;;4919725;29;20075;-85
2021/10/02 07:43:05;;;;;;;11.80;1.88;;;8.70;99.90;;;;;;4936768;29;20098;-85
2021/10/02 07:45:31;;;;;;;13.52;1.90;;;8.70;99.90;;;;;;4919888;29;20027;-86
2021/10/02 07:47:58;;;;;;;15.93;2.25;;;8.70;99.90;;;;;;4919717;29;20126;-85
2021/10/02 07:50:24;;;;;;;10.68;1.77;;;8.70;99.90;;;;;;4919671;29;20050;-85
2021/10/02 07:52:54;;;;;;;13.73;1.42;;;8.80;99.90;;;;;;4919468;29;20035;-85
2021/10/02 07:55:20;;;;;;;5.13;1.45;;;8.80;99.90;;;;;;4919599;29;20035;-85
2021/10/02 07:57:47;;;;;;;12.38;1.40;;;8.80;99.90;;;;;;4937471;29;20537;-85
2021/10/02 08:00:17;;;;;;;13.27;1.90;;;8.80;99.90;;;;;;4929148;29;20028;-86
2021/10/02 08:02:52;;;;;;;12.70;1.88;;;8.90;99.90;;;;;;4893453;29;20033;-85
2021/10/02 08:05:19;;;;;;;13.55;2.17;;;8.90;99.90;;;;;;4889084;29;20044;-85
2021/10/02 08:07:47;;;;;;;17.23;2.20;;;9.00;99.90;;;;;;4887195;29;20360;-85
2021/10/02 08:10:15;;;;;;;14.57;1.58;;;9.00;99.90;;;;;;4885922;29;20044;-85
2021/10/02 08:12:41;;;;;;;8.75;1.45;;;9.00;99.90;;;;;;4881392;29;20025;-86
2021/10/02 08:15:09;;;;;;;11.48;1.30;;;9.10;99.90;;;;;;4881282;29;20114;-85
2021/10/02 08:17:37;;;;;;;9.50;1.42;;;9.10;99.90;;;;;;4881220;29;20032;-85
2021/10/02 08:20:10;;;;;;;19.05;1.70;;;9.20;99.90;;;;;;4880653;29;20092;-86
2021/10/02 08:22:46;;;;;;;11.15;1.50;;;9.30;99.90;;;;;;4895171;29;20409;-85
2021/10/02 08:25:14;;;;;;;8.10;1.08;;;9.40;99.90;;;;;;4889814;29;20024;-86
2021/10/02 08:27:41;;;;;;;12.60;1.45;;;9.40;99.90;;;;;;4899552;29;20119;-86
2021/10/02 08:30:08;;;;;;;11.60;2.45;;;9.40;99.90;;;;;;4916441;29;20104;-85
2021/10/02 08:32:35;;;;;;;12.90;1.65;;;9.50;99.90;;;;;;4899206;29;20024;-85
2021/10/02 08:35:01;;;;;;;12.60;1.20;;;9.50;99.90;;;;;;4896441;29;20025;-86
2021/10/02 08:37:27;;;;;;;8.60;1.70;;;9.50;99.90;;;;;;4899587;29;20028;-85
2021/10/02 08:39:52;;;;;;;11.00;1.88;;;9.50;99.90;;;;;;4890295;29;20111;-86
2021/10/02 08:42:19;;;;;;;17.38;2.08;;;9.60;99.90;;;;;;4884144;29;20029;-86
2021/10/02 08:44:49;;;;;;;14.65;1.52;;;9.60;99.90;;;;;;4894728;29;20028;-86
2021/10/02 08:47:16;;;;;;;11.75;2.03;;;9.60;99.90;;;;;;4914913;29;20016;-86
2021/10/02 08:49:44;;;;;;;12.05;1.42;;;9.70;99.90;;;;;;4897982;29;20044;-86
2021/10/02 08:52:12;;;;;;;10.70;1.30;;;9.70;99.90;;;;;;4898108;29;20020;-87
2021/10/02 08:54:40;;;;;;;4.72;1.58;;;9.80;99.90;;;;;;4898135;29;20043;-87
2021/10/02 08:57:08;;;;;;;13.50;1.40;;;9.80;99.90;;;;;;4897409;29;20572;-87
2021/10/02 08:59:36;;;;;;;13.48;2.22;;;9.80;99.90;;;;;;4898425;29;20035;-86
2021/10/02 09:02:02;;;;;;;15.35;1.30;;;9.80;99.90;;;;;;4898390;29;20020;-87
2021/10/02 09:04:28;;;;;;;12.43;1.23;;;9.90;99.90;;;;;;4898509;29;20046;-86
2021/10/02 09:06:54;;;;;;;14.00;1.60;;;9.90;99.90;;;;;;4898679;29;20498;-86
2021/10/02 09:09:21;;;;;;;11.60;1.98;;;9.90;99.90;;;;;;4898371;29;20040;-85
2021/10/02 09:11:47;;;;;;;8.75;1.25;;;9.90;99.90;;;;;;4898122;29;20047;-86
2021/10/02 09:14:12;;;;;;;11.35;1.42;;;10.00;99.90;;;;;;4898284;29;20031;-85
2021/10/02 09:16:41;;;;;;;14.82;2.42;;;10.00;99.90;;;;;;4898095;29;20035;-85
2021/10/02 09:19:10;;;;;;;7.25;1.17;;;10.10;99.90;;;;;;4898135;29;20048;-87
2021/10/02 09:21:57;;;;;;;11.13;2.03;;;10.10;99.90;;;;;;4895708;29;20434;-86
2021/10/02 09:24:26;;;;;;;12.82;1.25;;;10.20;99.90;;;;;;4892842;29;20040;-86
2021/10/02 09:26:52;;;;;;;11.32;1.60;;;10.20;99.90;;;;;;4892592;29;20550;-85
2021/10/02 09:29:32;;;;;;;9.75;1.20;;;10.30;99.90;;;;;;4898966;29;20039;-86
2021/10/02 09:31:58;;;;;;;10.90;1.80;;;10.30;99.90;;;;;;4900082;29;20032;-86
2021/10/02 09:34:25;;;;;;;11.73;1.48;;;10.40;99.90;;;;;;4920050;29;20117;-86
2021/10/02 09:36:51;;;;;;;9.93;1.30;;;10.40;99.90;;;;;;4903203;29;20024;-86
2021/10/02 09:39:17;;;;;;;13.80;1.58;;;10.50;99.90;;;;;;4902993;29;20114;-86
2021/10/02 09:41:53;;;;;;;11.85;1.60;;;10.50;99.90;;;;;;4902814;29;20127;-87
2021/10/02 09:44:23;;;;;;;9.07;1.30;;;10.50;99.90;;;;;;4902934;29;20044;-86
2021/10/02 09:46:49;;;;;;;;;;;10.60;99.90;;;;;;4903197;29;20031;-87
2021/10/02 09:49:15;;;;;;;14.35;1.13;;;10.60;99.90;;;;;;4902869;29;19916;-87
2021/10/02 09:51:43;;;;;;;5.28;1.05;;;10.60;99.90;;;;;;4919687;29;20025;-87
2021/10/02 09:54:39;;;;;;;21.20;1.80;;;10.60;99.90;;;;;;4902537;29;20141;-85
2021/10/02 09:57:14;;;;;;;6.35;1.35;;;10.60;99.90;;;;;;4896361;29;20044;-85
2021/10/02 09:59:39;;;;;;;16.35;1.70;;;10.60;99.90;;;;;;4903136;29;20056;-87
2021/10/02 10:02:13;;;;;;;12.63;1.83;;;10.60;99.90;;;;;;4903377;29;20059;-86
2021/10/02 10:04:46;;;;;;;18.35;1.92;;;10.60;99.90;;;;;;4902937;29;20060;-87
2021/10/02 10:07:12;;;;;;;18.88;2.90;;;10.70;99.90;;;;;;4887897;29;20125;-87
2021/10/02 10:09:41;;;;;;;9.30;1.10;;;10.70;99.90;;;;;;4901160;29;20049;-87
2021/10/02 10:12:07;;;;;;;8.77;1.65;;;10.60;99.90;;;;;;4900141;29;20309;-86
2021/10/02 10:14:35;;;;;;;7.63;1.58;;;10.60;99.90;;;;;;4901464;29;20028;-87
2021/10/02 10:17:00;;;;;;;11.82;2.08;;;10.60;99.90;;;;;;4901688;29;20054;-89
2021/10/02 10:19:29;;;;;;;11.65;2.05;;;10.60;99.90;;;;;;4902720;29;20060;-87
2021/10/02 10:22:03;;;;;;;12.05;1.40;;;10.60;99.90;;;;;;4901762;29;20056;-88
2021/10/02 10:24:29;;;;;;;11.70;2.08;;;10.50;99.90;;;;;;4901925;29;20060;-86
2021/10/02 10:26:55;;;;;;;11.32;2.15;;;10.40;99.90;;;;;;4918937;29;20055;-89
2021/10/02 10:29:21;;;;;;;8.98;1.85;;;10.40;99.90;;;;;;4920221;29;20044;-92
2021/10/02 10:31:58;;;;;;;9.90;1.40;;;10.40;99.90;;;;;;4903116;29;20092;-90
2021/10/02 10:34:24;;;;;;;11.70;1.33;;;10.30;99.90;;;;;;4902779;29;20032;-89
2021/10/02 10:36:50;;;;;;;13.48;2.30;;;10.30;99.90;;;;;;4919181;29;20527;-89
2021/10/02 10:39:16;;;;;;;8.05;1.48;;;10.20;99.90;;;;;;4902540;29;20039;-89
2021/10/02 10:41:42;;;;;;;6.78;1.50;;;10.20;99.90;;;;;;4903288;29;20024;-88
2021/10/02 10:44:08;;;;;;;9.38;1.25;;;10.10;99.90;;;;;;4918248;29;20482;-88
2021/10/02 10:46:36;;;;;;;13.48;1.80;;;10.10;99.90;;;;;;4902922;29;20123;-88
2021/10/02 10:49:03;;;;;;;9.35;1.30;;;10.10;99.90;;;;;;4925322;29;20055;-89
2021/10/02 10:51:29;;;;;;;11.10;1.60;;;10.00;99.90;;;;;;4913603;29;20028;-89
2021/10/02 10:53:56;;;;;;;10.18;1.42;;;10.00;99.90;;;;;;4915031;29;20024;-89
2021/10/02 10:56:43;;;;;;;12.80;2.92;;;10.00;99.90;;;;;;4921282;29;20084;-90
2021/10/02 10:59:09;;;;;;;9.55;1.95;;;10.00;99.90;;;;;;4916415;29;20554;-90
2021/10/02 11:01:38;;;;;;;16.45;1.80;;;9.90;99.90;;;;;;4923942;29;20114;-89
2021/10/02 11:04:04;;;;;;;8.35;1.90;;;10.00;99.90;;;;;;4920212;29;20043;-90
2021/10/02 11:06:50;;;;;;;13.60;2.10;;;10.00;99.90;;;;;;4923058;29;20053;-90
2021/10/02 11:09:33;;;;;;;10.38;3.00;;;10.00;99.90;;;;;;4907159;29;20091;-90
2021/10/02 11:11:59;;;;;;;12.43;2.13;;;10.00;99.90;;;;;;4909283;29;20028;-89
2021/10/02 11:14:45;;;;;;;16.48;2.33;;;10.00;99.90;;;;;;4904710;29;20055;-91
2021/10/02 11:17:12;;;;;;;12.90;2.28;;;10.00;99.90;;;;;;4903252;29;20028;-89
2021/10/02 11:19:43;;;;;;;8.32;1.63;;;10.00;99.90;;;;;;4902141;29;20486;-90
2021/10/02 11:23:13;;;;;;;6.03;1.58;;;10.00;99.90;;;;;;4902060;29;20047;-91
2021/10/02 11:25:39;;;;;;;9.32;1.50;;;10.00;99.90;;;;;;4842044;29;20045;-91
2021/10/02 11:28:26;;;;;;;9.68;1.90;;;10.00;99.90;;;;;;4839048;29;20034;-90
2021/10/02 11:30:53;;;;;;;6.80;1.52;;;9.90;99.90;;;;;;4824937;29;20046;-91
2021/10/02 11:33:43;;;;;;;12.32;1.73;;;10.00;99.90;;;;;;4838233;29;20055;-90
2021/10/02 11:36:35;;;;;;;7.82;1.40;;;10.00;99.90;;;;;;4839380;29;20694;-91
2021/10/02 11:39:27;;;;;;;7.65;1.60;;;10.00;99.90;;;;;;4838966;29;20042;-90
2021/10/02 11:42:06;;;;;;;10.70;1.63;;;10.00;99.90;;;;;;4839762;29;20058;-89
2021/10/02 11:44:32;;;;;;;9.32;1.92;;;10.00;99.90;;;;;;4825998;29;20034;-89
2021/10/02 11:47:25;;;;;;;12.02;2.88;;;10.00;99.90;;;;;;4825891;29;20038;-90
2021/10/02 11:50:09;;;;;;;7.53;1.67;;;10.00;99.90;;;;;;4823865;29;20178;-90
2021/10/02 11:52:37;;;;;;;6.65;1.45;;;10.00;99.90;;;;;;4835632;29;20026;-89
2021/10/02 11:55:33;;;;;;;12.85;2.08;;;10.00;99.90;;;;;;4854381;29;20137;-88
2021/10/02 11:58:08;;;;;;;6.45;1.35;;;10.00;99.90;;;;;;4836732;29;20072;-88
2021/10/02 12:00:45;;;;;;;15.18;2.22;;;10.10;99.90;;;;;;4835659;29;20072;-88
2021/10/02 12:03:18;;;;;;;14.20;1.92;;;10.00;99.90;;;;;;4901032;29;20047;-89
2021/10/02 12:05:47;;;;;;;12.73;2.25;;;10.00;99.90;;;;;;4906630;29;20446;-88
2021/10/02 12:08:13;;;;;;;7.60;1.67;;;10.00;99.90;;;;;;4902390;29;20028;-89
2021/10/02 12:11:04;;;;;;;7.70;1.50;;;10.10;99.90;;;;;;4901050;29;20060;-90
2021/10/02 12:13:36;;;;;;;5.80;1.50;;;10.10;99.90;;;;;;4901214;29;20071;-88
2021/10/02 12:16:05;;;;;;;6.97;1.48;;;10.10;99.90;;;;;;4898793;29;20032;-91
2021/10/02 12:18:51;;;;;;;7.03;1.10;;;10.10;99.90;;;;;;4915300;29;20027;-89
2021/10/02 12:21:23;;;;;;;8.88;1.20;;;10.20;99.90;;;;;;4896697;29;20036;-88
2021/10/02 12:24:20;;;;;;;8.10;1.50;;;10.20;99.90;;;;;;4917063;29;20454;-88
2021/10/02 12:27:14;;;;;;;4.78;1.60;;;10.20;99.90;;;;;;4900722;29;20115;-86
2021/10/02 12:29:46;;;;;;;5.18;1.17;;;10.20;99.90;;;;;;4900998;29;20032;-87
2021/10/02 12:32:14;;;;;;;7.70;1.70;;;10.20;99.90;;;;;;4914189;29;20506;-87
2021/10/02 12:34:51;;;;;;;6.03;1.48;;;10.20;99.90;;;;;;4899792;29;20717;-88
2021/10/02 12:37:34;;;;;;;6.13;1.38;;;10.20;99.90;;;;;;4915516;29;20066;-89
2021/10/02 12:40:06;;;;;;;8.55;1.60;;;10.30;99.90;;;;;;4900162;29;20032;-86
2021/10/02 12:42:38;;;;;;;3.38;1.27;;;10.30;99.90;;;;;;4916560;29;20581;-87
2021/10/02 12:45:10;;;;;;;3.70;1.35;;;10.30;99.90;;;;;;4899553;29;20033;-88
2021/10/02 12:47:36;;;;;;;6.22;1.33;;;10.30;99.90;;;;;;4899174;29;20030;-87
2021/10/02 12:50:08;;;;;;;4.85;1.20;;;10.40;99.90;;;;;;4899077;29;20127;-89
2021/10/02 12:52:34;;;;;;;8.63;1.52;;;10.40;99.90;;;;;;4915227;29;20039;-88
2021/10/02 12:55:08;;;;;;;8.77;1.40;;;10.40;99.90;;;;;;4899624;29;20028;-90
2021/10/02 12:57:34;;;;;;;5.43;1.30;;;10.40;99.90;;;;;;4899458;29;20500;-90
2021/10/02 13:00:13;;;;;;;6.63;1.35;;;10.40;99.90;;;;;;4900119;29;20470;-89
2021/10/02 13:02:48;;;;;;;4.15;1.20;;;10.40;99.90;;;;;;4917703;29;20060;-89
2021/10/02 13:05:16;;;;;;;5.60;1.30;;;10.40;99.90;;;;;;4900703;29;20036;-89
2021/10/02 13:07:51;;;;;;;7.43;1.73;;;10.40;99.90;;;;;;4899891;29;20028;-89
2021/10/02 13:10:19;;;;;;;4.45;1.17;;;10.40;99.90;;;;;;4917639;29;20146;-89
2021/10/02 13:12:57;;;;;;;11.63;1.95;;;10.40;99.90;;;;;;4900900;29;20031;-89
2021/10/02 13:15:31;;;;;;;6.53;1.60;;;10.40;99.90;;;;;;4900724;29;20521;-88
2021/10/02 13:18:02;;;;;;;5.10;1.50;;;10.40;99.90;;;;;;4916004;29;20278;-89
2021/10/02 13:20:30;;;;;;;5.18;1.67;;;10.50;99.90;;;;;;4900317;29;20039;-88
2021/10/02 13:23:02;;;;;;;6.32;1.60;;;10.50;99.90;;;;;;4899994;29;20052;-89
2021/10/02 13:25:28;;;;;;;5.65;1.98;;;10.50;99.90;;;;;;4916234;29;20075;-88
2021/10/02 13:27:58;;;;;;;7.78;1.50;;;10.60;99.90;;;;;;4901035;29;20035;-89
2021/10/02 13:30:27;;;;;;;7.70;1.70;;;10.60;99.90;;;;;;4900197;29;20036;-89
2021/10/02 13:33:12;;;;;;;8.68;1.50;;;10.60;99.90;;;;;;4916219;29;20024;-88
2021/10/02 13:35:40;;;;;;;10.15;1.80;;;10.60;99.90;;;;;;4900591;29;20478;-88
2021/10/02 13:38:08;;;;;;;2.35;1.10;;;10.70;99.90;;;;;;4900379;29;20103;-89
2021/10/02 13:40:46;;;;;;;4.90;1.52;;;10.60;99.90;;;;;;4900483;29;20040;-89
2021/10/02 13:43:13;;;;;;;6.55;1.63;;;10.70;99.90;;;;;;4900259;29;20038;-88
2021/10/02 13:45:42;;;;;;;6.40;1.30;;;10.70;99.90;;;;;;4900113;29;20059;-89
2021/10/02 13:48:14;;;;;;;5.68;1.70;;;10.70;99.90;;;;;;4900293;29;20032;-89
2021/10/02 13:50:43;;;;;;;4.53;2.58;;;10.70;99.90;;;;;;4900256;29;20106;-89
2021/10/02 13:53:09;;;;;;;7.50;1.60;;;10.80;99.90;;;;;;4900173;29;20098;-88